Time;durP1;ratioP1;P1;durP2;ratioP2;P2;SDS_P1;SDS_P2;PMS_P1;PMS_P2;Temp;Humidity;BMP_temperature;BMP_pressure;BME280_temperature;BME280_humidity;BME280_pressure;Samples;Min_cycle;Max_cycle;Signal;HPM_P1;HPM_P2
2024/01/22 00:01:56;;;;;;;5.07;1.67;;;;;;;-8.61;74.91;101138.81;5068686;28;20110;-55
2024/01/22 00:04:22;;;;;;;8.20;3.90;;;;;;;-8.65;74.33;101122.63;5072102;28;20599;-52
2024/01/22 00:06:48;;;;;;;9.32;2.60;;;;;;;-8.67;75.00;101113.22;5059879;28;20051;-54
2024/01/22 00:09:14;;;;;;;6.57;2.97;;;;;;;-8.76;75.19;101098.38;5066033;28;20174;-53
2024/01/22 00:11:40;;;;;;;7.30;2.35;;;;;;;-8.86;75.31;101064.94;5069314;28;20132;-52
2024/01/22 00:14:06;;;;;;;15.07;2.88;;;;;;;-8.61;76.02;101114.50;5066525;28;20546;-56
2024/01/22 00:16:32;;;;;;;6.72;2.47;;;;;;;-9.16;76.22;101009.25;5055779;28;20048;-54
2024/01/22 00:18:58;;;;;;;6.28;2.63;;;;;;;-8.54;76.07;101117.41;5066551;28;20071;-56
2024/01/22 00:21:23;;;;;;;8.75;3.15;;;;;;;-8.54;76.21;101113.25;5060868;28;20102;-55
2024/01/22 00:23:49;;;;;;;6.07;2.78;;;;;;;-8.46;75.84;101116.25;5091051;28;20040;-56
2024/01/22 00:26:15;;;;;;;8.55;3.28;;;;;;;-8.41;76.66;101114.88;5064534;28;20045;-59
2024/01/22 00:28:42;;;;;;;7.47;3.53;;;;;;;-8.40;75.90;101119.16;5067637;28;20039;-53
2024/01/22 00:31:08;;;;;;;12.70;2.88;;;;;;;-8.50;76.34;101095.00;5067841;28;20135;-57
2024/01/22 00:33:34;;;;;;;3.92;2.10;;;;;;;-8.38;76.04;101118.50;5049523;28;20544;-56
2024/01/22 00:36:02;;;;;;;7.03;3.25;;;;;;;-8.34;75.69;101112.00;5066687;28;20041;-54
2024/01/22 00:38:28;;;;;;;4.18;1.77;;;;;;;-8.25;76.10;101102.44;5065582;28;20141;-56
2024/01/22 00:40:54;;;;;;;5.32;2.47;;;;;;;-8.20;75.60;101104.47;5066643;28;20040;-54
2024/01/22 00:43:20;;;;;;;8.80;2.88;;;;;;;-8.18;75.64;101102.94;5067134;28;20039;-54
2024/01/22 00:45:46;;;;;;;6.78;3.33;;;;;;;-8.14;75.93;101112.44;5065048;28;20044;-55
2024/01/22 00:48:12;;;;;;;8.88;3.00;;;;;;;-8.09;75.29;101106.78;5048783;28;20083;-55
2024/01/22 00:50:38;;;;;;;5.70;3.53;;;;;;;-8.07;75.16;101113.69;5057241;28;20057;-55
2024/01/22 00:53:03;;;;;;;7.35;3.80;;;;;;;-8.46;75.09;101030.50;5087171;28;20457;-54
2024/01/22 00:55:29;;;;;;;5.60;3.15;;;;;;;-7.87;75.27;101112.41;5065188;28;20695;-52
2024/01/22 00:57:55;;;;;;;8.50;2.83;;;;;;;-7.89;74.86;101103.84;5065816;28;20036;-54
2024/01/22 01:00:21;;;;;;;10.32;3.22;;;;;;;-7.84;74.78;101113.44;5067057;28;20060;-58
2024/01/22 01:02:49;;;;;;;6.75;2.67;;;;;;;-7.83;74.79;101107.63;5063069;28;20131;-53
2024/01/22 01:05:16;;;;;;;6.88;3.13;;;;;;;-7.85;75.16;101106.66;5047566;28;20105;-55
2024/01/22 01:07:42;;;;;;;6.07;3.20;;;;;;;-7.81;74.77;101105.22;5067094;28;20028;-56
2024/01/22 01:10:08;;;;;;;5.32;2.45;;;;;;;-7.83;74.59;101102.59;5065703;28;20538;-54
2024/01/22 01:12:34;;;;;;;8.20;2.80;;;;;;;-7.90;74.89;101094.56;5062857;28;20086;-55
2024/01/22 01:15:00;;;;;;;6.13;3.85;;;;;;;-8.02;75.52;101068.56;5067223;28;20402;-54
2024/01/22 01:17:26;;;;;;;6.30;2.33;;;;;;;-8.04;75.07;101077.69;5066993;28;20066;-55
2024/01/22 01:19:52;;;;;;;5.53;2.35;;;;;;;-8.15;75.31;101052.66;5086875;28;20497;-53
2024/01/22 01:22:18;;;;;;;4.80;2.08;;;;;;;-8.10;75.41;101078.16;5046296;28;20041;-57
2024/01/22 01:24:44;;;;;;;5.65;2.55;;;;;;;-7.86;75.90;101119.19;5065763;28;20046;-58
2024/01/22 01:27:10;;;;;;;5.95;2.35;;;;;;;-7.83;75.70;101117.72;5057000;28;20040;-55
2024/01/22 01:29:38;;;;;;;6.35;2.67;;;;;;;-7.78;76.00;101118.00;5059199;28;20048;-53
2024/01/22 01:32:05;;;;;;;8.20;2.65;;;;;;;-7.74;75.64;101119.94;5061342;28;20135;-56
2024/01/22 01:34:31;;;;;;;6.78;3.30;;;;;;;-7.74;75.82;101130.03;5057134;28;20102;-55
2024/01/22 01:36:57;;;;;;;5.97;2.22;;;;;;;-7.75;75.77;101115.69;5058085;28;20071;-54
2024/01/22 01:39:23;;;;;;;4.00;1.65;;;;;;;-7.93;75.80;101070.00;5061217;28;20139;-50
2024/01/22 01:41:49;;;;;;;5.40;2.50;;;;;;;-7.74;75.49;101117.41;5061136;28;20047;-59
2024/01/22 01:44:15;;;;;;;5.57;1.95;;;;;;;-7.77;75.58;101110.53;5066333;28;20455;-56
2024/01/22 01:46:41;;;;;;;9.27;2.45;;;;;;;-7.78;75.95;101118.00;5076948;28;20091;-56
2024/01/22 01:49:08;;;;;;;5.43;1.75;;;;;;;-8.15;75.64;101051.78;5061993;28;20079;-59
2024/01/22 01:51:35;;;;;;;6.32;2.72;;;;;;;-7.83;76.12;101106.75;5070835;28;20037;-56
2024/01/22 01:54:02;;;;;;;3.58;2.33;;;;;;;-8.15;75.76;101066.91;5062521;28;20044;-58
2024/01/22 01:56:28;;;;;;;4.57;2.55;;;;;;;-8.24;75.80;101047.06;5064667;28;21516;-54
2024/01/22 01:58:54;;;;;;;8.38;3.25;;;;;;;-7.88;75.86;101098.03;5065362;28;20528;-52
2024/01/22 02:01:20;;;;;;;8.85;3.13;;;;;;;-8.08;75.89;101069.06;5082294;28;20586;-58
2024/01/22 02:03:46;;;;;;;8.63;1.83;;;;;;;-7.85;76.26;101095.72;5057579;28;20068;-55
2024/01/22 02:06:12;;;;;;;7.88;1.77;;;;;;;-7.82;76.18;101093.38;5056348;28;20076;-53
2024/01/22 02:08:38;;;;;;;6.97;2.20;;;;;;;-7.81;76.33;101090.94;5048553;28;20093;-54
2024/01/22 02:11:05;;;;;;;10.65;3.50;;;;;;;-7.73;76.29;101087.22;5047225;28;20097;-55
2024/01/22 02:13:31;;;;;;;5.63;2.65;;;;;;;-7.65;76.53;101090.22;5072638;28;20048;-54
2024/01/22 02:15:57;;;;;;;5.05;1.58;;;;;;;-7.97;75.92;101045.34;5065399;28;20041;-57
2024/01/22 02:18:23;;;;;;;10.70;4.28;;;;;;;-7.83;75.39;101068.91;5053795;28;20036;-52
2024/01/22 02:20:49;;;;;;;6.03;2.65;;;;;;;-8.13;75.45;101008.22;5042517;28;20043;-57
2024/01/22 02:23:14;;;;;;;9.25;3.88;;;;;;;-7.74;75.40;101084.59;5055060;28;20067;-51
2024/01/22 02:25:41;;;;;;;11.18;3.65;;;;;;;-7.73;75.21;101098.97;5060978;28;20072;-51
2024/01/22 02:28:06;;;;;;;3.80;2.17;;;;;;;-7.68;75.61;101105.16;5057454;28;20040;-55
2024/01/22 02:30:32;;;;;;;6.35;1.23;;;;;;;-7.68;75.68;101107.69;5055754;28;20081;-56
2024/01/22 02:32:58;;;;;;;6.43;2.58;;;;;;;-7.67;75.86;101104.38;5059946;28;20036;-57
2024/01/22 02:35:24;;;;;;;6.88;2.75;;;;;;;-7.67;75.67;101101.00;5057257;28;20041;-52
2024/01/22 02:37:50;;;;;;;3.33;1.45;;;;;;;-8.20;75.51;101008.63;5063621;28;20036;-55
2024/01/22 02:40:16;;;;;;;4.55;2.83;;;;;;;-7.62;76.08;101094.56;5062764;28;20079;-56
2024/01/22 02:42:42;;;;;;;10.75;2.95;;;;;;;-7.58;75.66;101099.88;5089384;28;20028;-55
2024/01/22 02:45:08;;;;;;;3.95;1.60;;;;;;;-7.62;75.89;101077.75;5057240;28;20052;-54
2024/01/22 02:47:35;;;;;;;6.45;3.17;;;;;;;-7.50;75.39;101096.19;5063768;28;20068;-56
2024/01/22 02:50:01;;;;;;;7.53;2.28;;;;;;;-7.49;75.36;101092.00;5061660;28;20450;-56
2024/01/22 02:52:30;;;;;;;17.17;4.05;;;;;;;-7.46;75.30;101098.09;5055536;28;20135;-54
2024/01/22 02:54:56;;;;;;;15.45;5.07;;;;;;;-7.43;75.39;101095.75;5062014;28;20066;-53
2024/01/22 02:57:22;;;;;;;8.93;3.78;;;;;;;-7.43;75.77;101089.84;5095263;28;20512;-57
2024/01/22 02:59:48;;;;;;;8.85;3.58;;;;;;;-7.38;75.59;101093.53;5063707;28;20542;-56
2024/01/22 03:02:14;;;;;;;8.27;3.28;;;;;;;-7.38;75.67;101096.06;5061907;28;20033;-56
2024/01/22 03:04:40;;;;;;;12.02;3.38;;;;;;;-7.42;75.57;101096.63;5054018;28;20033;-57
2024/01/22 03:07:08;;;;;;;8.48;3.15;;;;;;;-7.44;75.76;101086.47;5078094;28;20579;-56
2024/01/22 03:09:34;;;;;;;6.97;2.95;;;;;;;-7.41;75.78;101091.69;5062248;28;20040;-58
2024/01/22 03:11:59;;;;;;;4.32;2.95;;;;;;;-7.63;76.05;101052.41;5061500;28;20043;-59
2024/01/22 03:14:25;;;;;;;11.40;4.40;;;;;;;-7.75;75.78;101023.16;5064053;28;20150;-58
2024/01/22 03:16:51;;;;;;;15.73;3.92;;;;;;;-7.54;75.79;101050.47;5063736;28;20094;-56
2024/01/22 03:19:17;;;;;;;6.75;3.30;;;;;;;-7.31;75.95;101088.03;5062266;28;20040;-56
2024/01/22 03:21:43;;;;;;;6.40;2.55;;;;;;;-7.25;75.72;101098.50;5057305;28;20056;-58
2024/01/22 03:24:08;;;;;;;8.75;3.10;;;;;;;-7.28;75.92;101086.59;5088703;28;20824;-57
2024/01/22 03:26:34;;;;;;;7.28;3.47;;;;;;;-7.26;75.85;101091.69;5063569;28;20086;-57
2024/01/22 03:29:00;;;;;;;6.38;2.45;;;;;;;-7.25;76.01;101085.00;5065251;28;20176;-58
2024/01/22 03:31:28;;;;;;;8.18;3.85;;;;;;;-7.15;76.14;101085.63;5066960;28;20094;-57
2024/01/22 03:33:54;;;;;;;5.30;2.63;;;;;;;-7.07;75.80;101086.97;5061008;28;20045;-58
2024/01/22 03:36:21;;;;;;;10.80;3.38;;;;;;;-7.04;75.95;101087.13;5034350;28;20767;-58
2024/01/22 03:38:47;;;;;;;8.63;2.60;;;;;;;-7.01;75.76;101094.88;5089977;28;20040;-55
2024/01/22 03:41:13;;;;;;;8.75;3.00;;;;;;;-6.95;75.75;101095.22;5068417;28;20119;-58
2024/01/22 03:43:43;;;;;;;11.85;2.65;;;;;;;-6.96;75.25;101088.44;5087819;28;20568;-56
2024/01/22 03:46:14;;;;;;;6.38;2.30;;;;;;;-6.92;75.47;101097.09;5070350;28;20048;-58
2024/01/22 03:48:40;;;;;;;9.35;3.67;;;;;;;-7.09;75.40;101069.94;5059804;28;20040;-58
2024/01/22 03:51:06;;;;;;;7.70;2.83;;;;;;;-6.94;75.47;101094.47;5061278;28;20074;-56
2024/01/22 03:53:32;;;;;;;12.20;3.65;;;;;;;-7.03;75.62;101090.53;5088456;28;20041;-57
2024/01/22 03:55:58;;;;;;;9.00;3.80;;;;;;;-6.98;75.43;101090.00;5065028;28;20051;-56
2024/01/22 03:58:24;;;;;;;13.43;3.35;;;;;;;-6.94;75.63;101103.69;5062217;28;20123;-59
2024/01/22 04:00:50;;;;;;;9.50;2.63;;;;;;;-6.89;75.62;101109.88;5066905;28;20147;-59
2024/01/22 04:03:16;;;;;;;7.15;2.97;;;;;;;-6.91;75.55;101101.34;5065651;28;20122;-58
2024/01/22 04:05:42;;;;;;;7.72;2.47;;;;;;;-6.93;75.35;101102.91;5064459;28;20040;-58
2024/01/22 04:08:08;;;;;;;13.57;4.63;;;;;;;-6.95;75.16;101096.88;5068214;28;20672;-58
2024/01/22 04:10:34;;;;;;;10.00;3.00;;;;;;;-6.98;75.36;101106.84;5068773;28;20036;-59
2024/01/22 04:13:06;;;;;;;5.53;3.05;;;;;;;-7.28;75.50;101065.50;5049970;28;20048;-57
2024/01/22 04:15:32;;;;;;;6.38;2.88;;;;;;;-7.24;75.73;101061.47;5047401;28;20044;-57
2024/01/22 04:17:58;;;;;;;6.00;2.40;;;;;;;-7.05;75.68;101099.66;5042883;28;20086;-61
2024/01/22 04:20:23;;;;;;;14.68;3.45;;;;;;;-7.02;75.95;101097.34;5065491;28;20090;-56
2024/01/22 04:22:51;;;;;;;11.48;2.75;;;;;;;-7.05;76.14;101100.53;5067367;28;20033;-55
2024/01/22 04:25:17;;;;;;;3.22;2.22;;;;;;;-7.26;76.20;101061.38;5072152;28;20048;-56
2024/01/22 04:27:44;;;;;;;9.20;3.47;;;;;;;-6.98;76.25;101095.06;5067843;28;20048;-55
2024/01/22 04:30:12;;;;;;;8.07;2.28;;;;;;;-6.97;76.12;101088.38;5065084;28;20032;-55
2024/01/22 04:32:38;;;;;;;7.03;3.47;;;;;;;-6.96;76.04;101087.59;5060355;28;20048;-54
2024/01/22 04:35:05;;;;;;;7.05;2.83;;;;;;;-6.91;76.26;101097.16;5089304;28;20043;-55
2024/01/22 04:37:31;;;;;;;7.68;2.60;;;;;;;-7.18;76.18;101047.56;5066325;28;20072;-52
2024/01/22 04:40:14;;;;;;;7.05;3.90;;;;;;;-7.15;75.82;101057.84;5065832;28;20527;-54
2024/01/22 04:42:42;;;;;;;8.07;3.33;;;;;;;-7.06;75.75;101071.00;5092240;28;20051;-55
2024/01/22 04:45:08;;;;;;;14.35;3.33;;;;;;;-7.18;75.76;101057.66;5080955;28;20078;-57
2024/01/22 04:47:34;;;;;;;11.32;4.07;;;;;;;-7.17;75.62;101063.59;5066456;28;20043;-56
2024/01/22 04:50:04;;;;;;;7.40;3.30;;;;;;;-7.01;75.48;101078.84;5077009;28;20044;-57
2024/01/22 04:52:38;;;;;;;5.57;2.28;;;;;;;-7.27;75.19;101047.00;5065733;28;20056;-57
2024/01/22 04:55:05;;;;;;;6.25;2.53;;;;;;;-6.95;75.14;101091.84;5066336;28;20199;-56
2024/01/22 04:57:31;;;;;;;10.35;3.65;;;;;;;-6.95;75.16;101090.19;5060814;28;20044;-54
2024/01/22 04:59:58;;;;;;;8.63;2.35;;;;;;;-6.95;74.93;101084.25;5066113;28;20039;-50
2024/01/22 05:02:27;;;;;;;6.93;2.58;;;;;;;-6.90;75.02;101087.91;5065877;28;20075;-56
2024/01/22 05:04:57;;;;;;;9.20;3.60;;;;;;;-6.89;74.98;101087.13;5067148;28;20086;-53
2024/01/22 05:07:24;;;;;;;;;;;;;;;-6.82;74.75;101078.25;5058113;28;20074;-55
2024/01/22 05:09:57;;;;;;;4.43;2.53;;;;;;;-6.80;74.40;101075.00;5079923;28;19962;-52
2024/01/22 05:12:24;;;;;;;7.63;3.58;;;;;;;-6.75;74.34;101068.56;5049105;28;20068;-56
2024/01/22 05:14:51;;;;;;;13.95;4.03;;;;;;;-6.68;74.46;101075.72;5065170;28;20067;-55
2024/01/22 05:17:21;;;;;;;8.88;3.10;;;;;;;-6.81;74.36;101035.38;5064384;28;20040;-53
2024/01/22 05:19:49;;;;;;;;;;;;;;;-6.57;73.64;101064.53;5064794;28;20262;-52
2024/01/22 05:22:16;;;;;;;11.32;3.15;;;;;;;-6.65;72.70;101055.69;5063567;28;19916;-55
2024/01/22 05:24:42;;;;;;;6.78;2.47;;;;;;;-6.63;72.72;101053.22;5065057;28;20071;-56
2024/01/22 05:27:12;;;;;;;7.80;2.97;;;;;;;-6.64;72.64;101059.03;5074793;28;20472;-55
2024/01/22 05:29:40;;;;;;;4.07;2.08;;;;;;;-6.66;72.07;101060.63;5059021;28;20036;-55
2024/01/22 05:32:07;;;;;;;9.20;2.92;;;;;;;-6.62;71.66;101060.88;5059492;28;20118;-53
2024/01/22 05:34:36;;;;;;;6.50;3.40;;;;;;;-6.69;71.08;101051.22;5064430;28;20044;-52
2024/01/22 05:37:02;;;;;;;11.07;3.73;;;;;;;-6.64;71.23;101059.91;5062990;28;20044;-56
2024/01/22 05:39:28;;;;;;;5.78;2.65;;;;;;;-6.59;71.02;101052.59;5066725;28;20052;-52
2024/01/22 05:41:55;;;;;;;8.50;3.15;;;;;;;-6.56;71.06;101063.78;5043854;28;20574;-54
2024/01/22 05:44:22;;;;;;;8.40;3.85;;;;;;;-6.77;70.33;101019.56;5047289;28;20044;-56
2024/01/22 05:46:49;;;;;;;8.48;3.38;;;;;;;-6.72;70.14;101020.72;5075696;28;20045;-52
2024/01/22 05:49:18;;;;;;;8.88;4.53;;;;;;;-6.59;70.60;101028.16;5087418;28;20041;-51
2024/01/22 05:51:45;;;;;;;19.20;4.97;;;;;;;-6.50;70.37;101036.28;5042088;28;20606;-51
2024/01/22 05:54:11;;;;;;;8.85;3.83;;;;;;;-6.12;70.73;101068.72;5063034;28;20040;-52
2024/01/22 05:56:37;;;;;;;9.93;2.85;;;;;;;-6.08;70.05;101079.91;5064897;28;20581;-53
2024/01/22 05:59:03;;;;;;;6.78;2.53;;;;;;;-6.12;69.45;101080.50;5066142;28;20090;-55
2024/01/22 06:01:30;;;;;;;6.97;2.67;;;;;;;-6.21;68.13;101073.28;5063448;28;20130;-50
2024/01/22 06:03:57;;;;;;;7.28;2.22;;;;;;;-6.24;68.44;101065.53;5065226;28;20578;-55
2024/01/22 06:06:24;;;;;;;5.53;2.47;;;;;;;-6.19;67.92;101071.72;5047367;28;20488;-54
2024/01/22 06:08:50;;;;;;;2.58;1.48;;;;;;;-6.14;68.04;101077.03;5066055;28;20036;-57
2024/01/22 06:11:18;;;;;;;9.50;3.25;;;;;;;-6.38;67.89;101025.94;5063804;28;20052;-56
2024/01/22 06:13:45;;;;;;;9.75;3.17;;;;;;;-6.15;66.75;101076.16;5065984;28;20521;-52
2024/01/22 06:16:12;;;;;;;6.75;2.70;;;;;;;-6.17;66.92;101079.38;5040266;28;20126;-54
2024/01/22 06:18:45;;;;;;;12.55;3.03;;;;;;;-6.24;66.63;101062.13;5060381;28;20487;-56
2024/01/22 06:21:15;;;;;;;3.70;1.95;;;;;;;-6.16;66.90;101078.59;5089381;28;20056;-55
2024/01/22 06:23:42;;;;;;;9.75;4.10;;;;;;;-6.44;66.52;101033.22;5044590;28;20095;-54
2024/01/22 06:26:10;;;;;;;7.65;2.60;;;;;;;-6.40;65.98;101044.38;5054459;28;20111;-54
2024/01/22 06:28:36;;;;;;;3.28;1.35;;;;;;;-6.11;66.00;101079.72;5046352;28;20051;-52
2024/01/22 06:31:03;;;;;;;8.65;2.78;;;;;;;-6.25;66.11;101045.22;5065837;28;20055;-56
2024/01/22 06:33:29;;;;;;;6.80;3.10;;;;;;;-6.03;65.21;101083.56;5045714;28;20086;-54
2024/01/22 06:35:55;;;;;;;8.48;3.08;;;;;;;-6.03;65.17;101078.50;5086104;28;20471;-54
2024/01/22 06:38:22;;;;;;;11.38;3.80;;;;;;;-6.01;64.92;101092.97;5064146;28;20051;-53
2024/01/22 06:40:48;;;;;;;7.20;2.42;;;;;;;-5.99;65.13;101077.84;5048031;28;20542;-56
2024/01/22 06:43:15;;;;;;;6.45;3.13;;;;;;;-6.46;65.13;101001.91;5030885;28;20614;-53
2024/01/22 06:45:43;;;;;;;8.07;3.10;;;;;;;-5.91;65.45;101096.84;5063663;28;20040;-51
2024/01/22 06:48:09;;;;;;;10.77;3.10;;;;;;;-5.85;65.24;101104.75;5047800;28;20084;-51
2024/01/22 06:50:35;;;;;;;7.22;2.72;;;;;;;-5.79;65.34;101097.47;5063555;28;20036;-53
2024/01/22 06:53:01;;;;;;;12.38;2.58;;;;;;;-5.75;64.54;101095.97;5061513;28;20420;-52
2024/01/22 06:55:27;;;;;;;6.10;2.85;;;;;;;-5.72;64.82;101102.09;5047315;28;20599;-55
2024/01/22 06:57:54;;;;;;;13.23;3.28;;;;;;;-5.95;64.62;101066.22;5064168;28;20146;-55
2024/01/22 07:00:21;;;;;;;15.63;3.25;;;;;;;-5.63;64.55;101110.16;5063980;28;20037;-56
2024/01/22 07:02:49;;;;;;;6.88;3.25;;;;;;;-5.61;64.46;101111.13;5063766;28;20045;-56
2024/01/22 07:05:16;;;;;;;7.60;2.50;;;;;;;-5.65;64.29;101114.28;5061828;28;20504;-57
2024/01/22 07:07:47;;;;;;;4.85;1.80;;;;;;;-5.67;63.86;101109.94;5080059;28;21251;-56
2024/01/22 07:10:17;;;;;;;4.60;1.52;;;;;;;-5.74;64.16;101095.19;5065097;28;20071;-56
2024/01/22 07:12:44;;;;;;;12.82;3.30;;;;;;;-5.62;64.18;101114.44;5063497;28;20041;-54
2024/01/22 07:15:12;;;;;;;8.70;2.95;;;;;;;-5.62;63.85;101122.06;5055700;28;20043;-58
2024/01/22 07:17:42;;;;;;;8.02;3.30;;;;;;;-5.69;63.79;101104.78;5063773;28;20181;-55
2024/01/22 07:20:14;;;;;;;6.10;2.42;;;;;;;-5.65;64.32;101113.41;5041570;28;20045;-52
2024/01/22 07:22:42;;;;;;;10.45;3.25;;;;;;;-5.63;63.71;101105.09;5057463;28;20504;-53
2024/01/22 07:25:09;;;;;;;6.43;2.78;;;;;;;-5.80;63.82;101059.41;5060981;28;20400;-54
2024/01/22 07:27:39;;;;;;;9.95;3.20;;;;;;;-5.44;64.03;101104.38;5088019;28;20044;-55
2024/01/22 07:30:08;;;;;;;4.45;2.10;;;;;;;-5.38;63.71;101101.31;5056425;28;20198;-54
2024/01/22 07:32:36;;;;;;;4.88;2.03;;;;;;;-5.36;63.97;101087.94;5090507;28;20048;-53
2024/01/22 07:35:10;;;;;;;9.45;3.35;;;;;;;-5.21;63.86;101090.38;5067159;28;20099;-54
2024/01/22 07:37:47;;;;;;;8.63;3.20;;;;;;;-5.23;63.10;101084.34;5068520;28;20063;-50
2024/01/22 07:40:16;;;;;;;9.15;2.92;;;;;;;-5.18;62.94;101088.88;5062812;28;20037;-55
2024/01/22 07:42:43;;;;;;;7.75;2.78;;;;;;;-5.07;62.92;101086.00;5059314;28;20534;-50
2024/01/22 07:45:10;;;;;;;7.50;2.83;;;;;;;-4.98;62.68;101086.47;5068188;28;20832;-52
2024/01/22 07:47:40;;;;;;;4.18;2.42;;;;;;;-5.44;62.29;101005.56;5049982;28;20044;-54
2024/01/22 07:50:10;;;;;;;7.55;2.35;;;;;;;-5.26;61.70;101028.44;5061229;28;20037;-52
2024/01/22 07:52:40;;;;;;;7.63;3.33;;;;;;;-5.22;62.10;101038.81;5096684;28;20049;-49
2024/01/22 07:55:07;;;;;;;9.48;3.10;;;;;;;-5.04;61.67;101063.34;5068509;28;20044;-50
2024/01/22 07:57:33;;;;;;;3.85;2.33;;;;;;;-4.92;61.95;101064.81;5066687;28;20451;-54
2024/01/22 07:59:59;;;;;;;8.43;3.30;;;;;;;-4.88;62.23;101073.47;5058634;28;20093;-51
2024/01/22 08:02:26;;;;;;;5.03;2.05;;;;;;;-4.88;61.94;101068.38;5048331;28;20122;-57
2024/01/22 08:04:53;;;;;;;7.00;2.92;;;;;;;-4.83;62.02;101072.91;5080522;28;20128;-52
2024/01/22 08:07:19;;;;;;;5.25;4.15;;;;;;;-4.91;61.39;101060.59;5041732;28;20508;-57
2024/01/22 08:09:46;;;;;;;6.97;3.05;;;;;;;-5.10;61.34;101023.34;5066996;28;20467;-52
2024/01/22 08:12:13;;;;;;;6.53;2.15;;;;;;;-4.83;61.97;101077.97;5060753;28;20180;-55
2024/01/22 08:14:39;;;;;;;6.93;2.75;;;;;;;-4.85;61.38;101049.13;5068347;28;20062;-55
2024/01/22 08:17:06;;;;;;;6.38;1.98;;;;;;;-4.70;61.97;101051.50;5082560;28;20044;-53
2024/01/22 08:19:34;;;;;;;7.75;3.25;;;;;;;-4.56;61.46;101054.75;5063481;28;20052;-54
2024/01/22 08:22:02;;;;;;;4.65;2.92;;;;;;;-5.03;61.27;100967.09;5090857;28;20134;-51
2024/01/22 08:24:31;;;;;;;8.18;3.50;;;;;;;-4.39;61.31;101054.72;5067196;28;20068;-56
2024/01/22 08:26:59;;;;;;;10.38;2.83;;;;;;;-4.56;60.86;101006.53;5067450;28;20048;-56
2024/01/22 08:29:28;;;;;;;6.40;2.90;;;;;;;-4.37;61.12;101011.66;5065626;28;20786;-52
2024/01/22 08:31:55;;;;;;;5.15;2.20;;;;;;;-3.97;60.71;101045.69;5030850;28;20436;-55
2024/01/22 08:34:22;;;;;;;7.53;3.15;;;;;;;-3.85;60.57;101036.09;5048776;28;20095;-57
2024/01/22 08:36:48;;;;;;;7.82;2.72;;;;;;;-3.83;60.24;101036.16;5050161;28;20048;-55
2024/01/22 08:39:18;;;;;;;6.30;2.80;;;;;;;-4.03;60.72;100993.75;5066922;28;20044;-54
2024/01/22 08:41:45;;;;;;;5.90;3.22;;;;;;;-3.71;60.46;101031.59;5067573;28;20827;-56
2024/01/22 08:44:13;;;;;;;8.90;3.25;;;;;;;-3.60;60.60;101060.03;5065711;28;20047;-53
2024/01/22 08:46:39;;;;;;;3.72;1.90;;;;;;;-3.71;60.47;101038.34;5064485;28;20036;-57
2024/01/22 08:49:06;;;;;;;10.98;3.47;;;;;;;-3.58;60.13;101038.09;5075225;28;20064;-58
2024/01/22 08:51:32;;;;;;;5.05;2.40;;;;;;;-3.62;60.11;100985.41;5068665;28;20110;-52
2024/01/22 08:53:59;;;;;;;6.38;3.38;;;;;;;-3.23;59.85;101031.97;5053534;28;20039;-51
2024/01/22 08:56:25;;;;;;;6.93;1.95;;;;;;;-3.29;59.40;101019.00;5071067;28;20048;-55
2024/01/22 08:58:51;;;;;;;7.88;2.90;;;;;;;-3.24;59.58;101014.97;5058799;28;20516;-57
2024/01/22 09:01:18;;;;;;;7.93;2.72;;;;;;;-3.25;59.15;101020.91;5064975;28;20424;-56
2024/01/22 09:03:43;;;;;;;3.88;1.88;;;;;;;-3.08;58.51;101014.81;5066337;28;20047;-55
2024/01/22 09:06:09;;;;;;;7.22;3.72;;;;;;;-2.85;58.75;101018.31;5064947;28;20040;-52
2024/01/22 09:08:36;;;;;;;6.97;2.85;;;;;;;-2.79;58.42;101037.25;5081566;28;20063;-55
2024/01/22 09:11:02;;;;;;;6.30;3.22;;;;;;;-2.73;57.82;100993.38;5065964;28;20625;-56
2024/01/22 09:13:28;;;;;;;8.10;3.22;;;;;;;-1.89;57.33;101013.63;5063095;28;20049;-55
2024/01/22 09:15:54;;;;;;;5.38;2.67;;;;;;;-1.32;55.85;100989.31;5067090;28;20041;-53
2024/01/22 09:18:20;;;;;;;4.20;2.38;;;;;;;0.00;53.54;100997.78;5045389;28;20161;-56
2024/01/22 09:20:47;;;;;;;5.20;2.33;;;;;;;0.53;51.22;101016.28;5057436;28;20562;-55
2024/01/22 09:23:12;;;;;;;6.57;2.63;;;;;;;-0.30;51.50;101007.94;5073602;28;20040;-58
2024/01/22 09:25:40;;;;;;;8.60;3.10;;;;;;;-1.01;52.67;101019.28;5064466;28;20097;-57
2024/01/22 09:28:07;;;;;;;6.80;2.97;;;;;;;-1.34;53.78;100998.59;5059123;28;20049;-56
2024/01/22 09:30:33;;;;;;;4.18;1.48;;;;;;;-1.76;54.03;100974.13;5057710;28;20036;-58
2024/01/22 09:32:59;;;;;;;6.65;2.95;;;;;;;-1.73;54.74;101002.31;5061824;28;20040;-59
2024/01/22 09:35:26;;;;;;;5.32;2.08;;;;;;;-1.94;54.88;100958.19;5055178;28;20056;-56
2024/01/22 09:37:53;;;;;;;6.32;2.25;;;;;;;-1.85;55.05;100994.19;5044390;28;20037;-62
2024/01/22 09:40:19;;;;;;;5.60;2.53;;;;;;;-1.83;55.19;100993.41;5051340;28;20090;-58
2024/01/22 09:42:45;;;;;;;6.88;2.85;;;;;;;-2.05;55.43;100990.94;5060106;28;20091;-54
2024/01/22 09:45:12;;;;;;;4.68;2.05;;;;;;;-2.21;55.61;100988.63;5048215;28;20535;-55
2024/01/22 09:47:38;;;;;;;6.10;2.55;;;;;;;-2.44;55.86;100962.28;5063400;28;20045;-55
2024/01/22 09:50:05;;;;;;;6.47;2.55;;;;;;;-2.18;56.08;100988.72;5055398;28;20114;-57
2024/01/22 09:52:34;;;;;;;6.35;3.40;;;;;;;-2.10;55.81;100977.16;5073376;28;20037;-53
2024/01/22 09:55:00;;;;;;;6.43;2.55;;;;;;;-2.25;56.03;100954.50;5061512;28;20419;-54
2024/01/22 09:57:28;;;;;;;5.05;2.15;;;;;;;-2.69;56.45;100913.78;5062233;28;20045;-57
2024/01/22 09:59:55;;;;;;;5.57;1.83;;;;;;;-2.02;56.60;100964.69;5063092;28;20850;-51
2024/01/22 10:02:21;;;;;;;9.68;2.30;;;;;;;-1.97;55.66;100963.16;5061745;28;20089;-53
2024/01/22 10:04:47;;;;;;;7.78;2.75;;;;;;;-2.34;56.28;100953.28;5044457;28;20043;-56
2024/01/22 10:07:14;;;;;;;3.47;1.55;;;;;;;-2.36;56.68;100954.94;5062159;28;20063;-58
2024/01/22 10:09:43;;;;;;;5.47;2.00;;;;;;;-2.58;56.91;100964.28;5065634;28;20129;-59
2024/01/22 10:12:09;;;;;;;8.27;2.67;;;;;;;-2.91;57.18;100973.13;5058887;28;20591;-59
2024/01/22 10:14:37;;;;;;;2.42;1.25;;;;;;;-3.19;58.20;100968.59;5065596;28;20132;-54
2024/01/22 10:17:17;;;;;;;7.25;3.17;;;;;;;-3.24;58.96;100989.56;5063815;28;20040;-55
2024/01/22 10:19:44;;;;;;;;;;;;;;;-3.43;58.93;100975.22;5038154;28;20076;-57
2024/01/22 10:22:12;;;;;;;5.18;2.55;;;;;;;-3.63;59.62;100966.75;5079752;28;19959;-57
2024/01/22 10:24:39;;;;;;;8.93;2.45;;;;;;;-3.64;59.59;100975.16;5065276;28;20492;-55
2024/01/22 10:27:13;;;;;;;3.45;1.77;;;;;;;-3.67;60.49;101009.75;5062586;28;20048;-58
2024/01/22 10:29:39;;;;;;;7.72;3.47;;;;;;;-3.76;60.65;100971.22;5046212;28;20337;-59
2024/01/22 10:32:05;;;;;;;6.93;1.70;;;;;;;-3.82;60.89;100961.66;5055959;28;20070;-57
2024/01/22 10:34:42;;;;;;;6.18;1.98;;;;;;;-3.71;61.39;100955.38;5060138;28;20048;-59
2024/01/22 10:37:09;;;;;;;5.18;2.30;;;;;;;-3.71;61.53;100947.75;5062297;28;20032;-56
2024/01/22 10:39:37;;;;;;;5.72;2.28;;;;;;;-3.78;61.27;100938.16;5063172;28;20133;-60
2024/01/22 10:42:10;;;;;;;4.22;2.20;;;;;;;-3.68;61.41;100947.91;5051983;28;20451;-57
2024/01/22 10:44:43;;;;;;;5.90;3.13;;;;;;;-3.72;61.59;100956.19;5045752;28;20513;-59
2024/01/22 10:47:11;;;;;;;4.10;1.95;;;;;;;-4.27;62.20;100861.50;5044231;28;20564;-58
2024/01/22 10:49:37;;;;;;;5.80;2.58;;;;;;;-3.82;62.55;100963.34;5078375;28;20076;-58
2024/01/22 10:52:04;;;;;;;4.75;2.05;;;;;;;-3.84;62.70;100937.88;5061798;28;20040;-56
2024/01/22 10:54:34;;;;;;;7.35;2.75;;;;;;;-3.76;62.80;100946.69;5068804;28;20181;-61
2024/01/22 10:57:13;;;;;;;4.18;2.75;;;;;;;-3.43;62.26;100874.41;5065662;28;20048;-55
2024/01/22 10:59:41;;;;;;;4.88;2.55;;;;;;;-1.54;59.39;100884.81;5079106;28;20135;-60
2024/01/22 11:02:14;;;;;;;6.72;1.65;;;;;;;0.27;55.42;100916.69;5076622;28;20485;-58
2024/01/22 11:04:44;;;;;;;6.78;2.83;;;;;;;1.02;52.79;100922.03;5059432;28;20511;-61
2024/01/22 11:07:11;;;;;;;9.40;3.33;;;;;;;1.69;50.40;100898.78;5053978;28;20044;-55
2024/01/22 11:09:37;;;;;;;5.32;2.30;;;;;;;2.02;49.21;100926.81;5063158;28;20044;-56
2024/01/22 11:12:09;;;;;;;4.65;2.22;;;;;;;2.55;48.41;100906.41;5060005;28;20146;-58
2024/01/22 11:14:41;;;;;;;4.80;1.83;;;;;;;2.80;47.05;100923.09;5048968;28;20094;-54
2024/01/22 11:17:10;;;;;;;5.25;2.70;;;;;;;2.62;46.92;100844.06;5064751;28;20113;-57
2024/01/22 11:19:36;;;;;;;9.30;3.10;;;;;;;3.37;45.76;100905.16;5066479;28;20072;-60
2024/01/22 11:22:22;;;;;;;7.03;2.83;;;;;;;3.55;45.46;100894.28;5050803;28;20052;-58
2024/01/22 11:25:06;;;;;;;2.75;2.22;;;;;;;3.51;44.85;100882.22;5084395;28;20044;-57